createdAt,value
2018-02-17T00:02:23.836Z,89.80
2018-02-17T00:04:52.025Z,89.50
2018-02-17T00:07:19.462Z,89.40
2018-02-17T00:09:47.671Z,89.50
2018-02-17T00:12:15.104Z,89.50
2018-02-17T00:14:43.316Z,89.50
2018-02-17T00:17:10.750Z,89.40
2018-02-17T00:19:38.177Z,90.00
2018-02-17T00:22:05.610Z,90.00
2018-02-17T00:24:33.040Z,89.70
2018-02-17T00:27:00.471Z,89.40
2018-02-17T00:29:28.656Z,89.10
2018-02-17T00:31:56.113Z,89.10
2018-02-17T00:34:24.327Z,89.60
2018-02-17T00:36:51.746Z,89.50
2018-02-17T00:39:19.944Z,89.00
2018-02-17T00:41:47.370Z,89.00
2018-02-17T00:44:15.587Z,89.00
2018-02-17T00:46:43.009Z,88.60
2018-02-17T00:49:10.440Z,89.10
2018-02-17T00:51:38.642Z,88.90
2018-02-17T00:54:06.836Z,88.80
2018-02-17T00:56:37.501Z,88.70
2018-02-17T00:59:04.950Z,88.70
2018-02-17T01:01:32.366Z,88.40
2018-02-17T01:03:59.818Z,88.50
2018-02-17T01:06:27.250Z,88.60
2018-02-17T01:08:54.757Z,88.80
2018-02-17T01:11:22.958Z,89.70
2018-02-17T01:13:50.393Z,89.60
2018-02-17T01:16:18.579Z,89.60
2018-02-17T01:18:46.017Z,89.50
2018-02-17T01:21:14.237Z,89.50
2018-02-17T01:23:41.669Z,89.50
2018-02-17T01:26:09.121Z,89.60
2018-02-17T01:28:36.535Z,89.40
2018-02-17T01:31:03.968Z,89.70
2018-02-17T01:33:31.417Z,89.70
2018-02-17T01:35:58.840Z,89.50
2018-02-17T01:38:26.260Z,89.70
2018-02-17T01:40:53.723Z,89.70
2018-02-17T01:43:21.148Z,89.40
2018-02-17T01:45:48.576Z,89.70
2018-02-17T01:48:16.944Z,90.00
2018-02-17T01:50:44.373Z,90.00
2018-02-17T01:53:11.821Z,89.80
2018-02-17T01:55:39.253Z,90.00
2018-02-17T01:58:06.690Z,89.70
2018-02-17T02:00:34.899Z,90.10
2018-02-17T02:03:02.330Z,90.10
2018-02-17T02:05:30.531Z,90.00
2018-02-17T02:07:58.974Z,90.00
2018-02-17T02:10:27.190Z,90.00
2018-02-17T02:12:54.612Z,90.00
2018-02-17T02:15:22.818Z,90.00
2018-02-17T02:17:50.248Z,89.90
2018-02-17T02:20:18.459Z,90.00
2018-02-17T02:22:45.894Z,90.00
2018-02-17T02:25:13.331Z,90.30
2018-02-17T02:27:40.763Z,90.60
2018-02-17T02:30:08.206Z,90.80
2018-02-17T02:32:35.621Z,90.50
2018-02-17T02:35:03.054Z,90.40
2018-02-17T02:37:30.476Z,90.20
2018-02-17T02:39:57.915Z,90.10
2018-02-17T02:42:25.338Z,90.00
2018-02-17T02:44:53.537Z,90.10
2018-02-17T02:47:20.957Z,90.10
2018-02-17T02:49:49.163Z,90.00
2018-02-17T02:52:16.589Z,90.20
2018-02-17T02:54:44.800Z,90.20
2018-02-17T02:57:12.238Z,89.80
2018-02-17T02:59:40.442Z,89.80
2018-02-17T03:02:07.887Z,89.80
2018-02-17T03:04:35.334Z,89.70
2018-02-17T03:07:03.524Z,90.00
2018-02-17T03:09:30.949Z,89.90
2018-02-17T03:11:59.171Z,89.90
2018-02-17T03:14:26.605Z,89.80
2018-02-17T03:16:54.044Z,89.90
2018-02-17T03:19:22.236Z,90.00
2018-02-17T03:21:49.684Z,90.00
2018-02-17T03:24:17.889Z,90.00
2018-02-17T03:26:45.321Z,90.00
2018-02-17T03:29:12.772Z,90.10
2018-02-17T03:31:40.974Z,90.30
2018-02-17T03:34:08.401Z,90.30
2018-02-17T03:36:36.595Z,90.20
2018-02-17T03:39:04.034Z,90.20
2018-02-17T03:41:32.221Z,90.40
2018-02-17T03:43:59.639Z,90.40
2018-02-17T03:46:27.060Z,90.20
2018-02-17T03:48:54.502Z,90.10
2018-02-17T03:51:21.952Z,90.10
2018-02-17T03:53:49.377Z,90.10
2018-02-17T03:56:16.816Z,90.40
2018-02-17T03:58:44.242Z,90.70
2018-02-17T04:01:11.668Z,90.50
2018-02-17T04:03:39.861Z,90.30
2018-02-17T04:06:07.297Z,90.30
2018-02-17T04:08:35.494Z,90.20
2018-02-17T04:11:02.933Z,90.20
2018-02-17T04:13:31.115Z,90.40
2018-02-17T04:15:58.549Z,90.40
2018-02-17T04:18:26.739Z,90.40
2018-02-17T04:20:54.186Z,90.30
2018-02-17T04:23:22.368Z,90.70
2018-02-17T04:25:49.797Z,90.30
2018-02-17T04:28:17.224Z,90.40
2018-02-17T04:30:44.654Z,90.30
2018-02-17T04:33:12.101Z,90.30
2018-02-17T04:35:39.535Z,90.40
2018-02-17T04:38:06.956Z,90.40
2018-02-17T04:43:37.104Z,90.40
2018-02-17T04:46:05.966Z,90.40
2018-02-17T04:48:33.402Z,90.30
2018-02-17T04:51:16.636Z,90.20
2018-02-17T04:53:58.961Z,90.20
2018-02-17T04:56:33.189Z,90.20
2018-02-17T05:02:18.882Z,90.40
2018-02-17T05:04:46.308Z,90.70
2018-02-17T05:07:16.445Z,90.60
2018-02-17T05:09:43.865Z,90.60
2018-02-17T05:12:12.068Z,90.30
2018-02-17T05:14:48.054Z,90.30
2018-02-17T05:17:31.277Z,90.30
2018-02-17T05:20:16.542Z,90.30
2018-02-17T05:23:00.733Z,90.30
2018-02-17T05:25:45.882Z,90.70
2018-02-17T05:28:28.996Z,90.60
2018-02-17T05:30:56.427Z,90.80
2018-02-17T05:33:29.622Z,91.00
2018-02-17T05:36:09.770Z,90.90
2018-02-17T05:38:39.812Z,90.70
2018-02-17T05:41:09.681Z,90.70
2018-02-17T05:43:37.882Z,90.60
2018-02-17T05:46:24.121Z,90.60
2018-02-17T05:49:06.428Z,90.70
2018-02-17T05:51:33.897Z,90.80
2018-02-17T05:54:01.325Z,90.90
2018-02-17T05:56:28.758Z,90.90
2018-02-17T05:58:56.193Z,90.70
2018-02-17T06:01:24.392Z,90.60
2018-02-17T06:03:51.817Z,90.50
2018-02-17T06:06:20.020Z,90.50
2018-02-17T06:08:48.360Z,90.50
2018-02-17T06:11:16.020Z,90.50
2018-02-17T06:13:43.448Z,90.60
2018-02-17T06:16:10.896Z,90.80
2018-02-17T06:18:38.322Z,90.50
2018-02-17T06:21:06.513Z,90.40
2018-02-17T06:23:33.957Z,90.40
2018-02-17T06:26:01.393Z,90.60
2018-02-17T06:28:29.584Z,90.50
2018-02-17T06:30:57.030Z,90.50
2018-02-17T06:33:25.238Z,90.50
2018-02-17T06:35:52.677Z,90.50
2018-02-17T06:38:20.101Z,90.60
2018-02-17T06:40:47.567Z,90.60
2018-02-17T06:43:15.773Z,90.60
2018-02-17T06:45:43.202Z,90.50
2018-02-17T06:48:11.412Z,90.50
2018-02-17T06:50:38.836Z,90.50
2018-02-17T06:53:07.050Z,90.70
2018-02-17T06:55:34.543Z,90.70
2018-02-17T06:58:01.976Z,90.80
2018-02-17T07:00:29.397Z,90.70
2018-02-17T07:02:57.597Z,90.90
2018-02-17T07:05:25.018Z,90.90
2018-02-17T07:07:53.212Z,90.90
2018-02-17T07:10:20.632Z,90.80
2018-02-17T07:12:48.984Z,90.80
2018-02-17T07:15:16.406Z,90.90
2018-02-17T07:17:43.829Z,90.90
2018-02-17T07:20:11.264Z,90.90
2018-02-17T07:22:38.689Z,90.80
2018-02-17T07:25:06.124Z,90.80
2018-02-17T07:27:33.561Z,90.80
2018-02-17T07:30:01.759Z,90.70
2018-02-17T07:32:29.946Z,90.80
2018-02-17T07:34:57.373Z,90.80
2018-02-17T07:37:25.581Z,90.90
2018-02-17T07:39:53.008Z,90.90
2018-02-17T07:42:21.200Z,90.50
2018-02-17T07:44:48.997Z,90.50
2018-02-17T07:47:16.425Z,90.50
2018-02-17T07:49:43.855Z,90.50
2018-02-17T07:52:12.057Z,90.40
2018-02-17T07:54:39.482Z,90.40
2018-02-17T07:57:06.916Z,90.40
2018-02-17T07:59:34.348Z,90.40
2018-02-17T08:02:01.776Z,90.30
2018-02-17T08:04:29.205Z,90.50
2018-02-17T08:06:56.638Z,90.50
2018-02-17T08:09:24.073Z,90.40
2018-02-17T08:11:51.512Z,90.30
2018-02-17T08:14:18.952Z,90.40
2018-02-17T08:16:47.144Z,90.50
2018-02-17T08:19:14.581Z,90.40
2018-02-17T08:21:42.781Z,90.20
2018-02-17T08:24:10.224Z,90.20
2018-02-17T08:26:37.665Z,90.40
2018-02-17T08:29:05.873Z,90.50
2018-02-17T08:31:33.312Z,90.50
2018-02-17T08:34:01.504Z,90.30
2018-02-17T08:36:28.920Z,90.30
2018-02-17T08:38:56.348Z,90.10
2018-02-17T08:41:23.768Z,89.10
2018-02-17T08:43:51.210Z,88.60
2018-02-17T08:46:19.430Z,88.90
2018-02-17T08:48:46.861Z,88.90
2018-02-17T08:51:14.282Z,88.40
2018-02-17T08:53:41.713Z,87.80
2018-02-17T08:56:09.146Z,87.90
2018-02-17T08:58:36.582Z,87.60
2018-02-17T09:01:04.106Z,87.50
2018-02-17T09:03:31.565Z,87.80
2018-02-17T09:05:58.984Z,87.40
2018-02-17T09:08:26.429Z,87.30
2018-02-17T09:10:53.860Z,87.00
2018-02-17T09:13:22.058Z,86.60
2018-02-17T09:15:49.512Z,86.60
2018-02-17T09:18:16.936Z,86.20
2018-02-17T09:20:45.124Z,85.80
2018-02-17T09:23:13.336Z,85.80
2018-02-17T09:25:40.821Z,85.80
2018-02-17T09:28:08.257Z,86.30
2018-02-17T09:30:35.684Z,86.30
2018-02-17T09:33:03.128Z,84.90
2018-02-17T09:35:31.325Z,84.60
2018-02-17T09:37:58.768Z,84.50
2018-02-17T09:40:26.958Z,83.40
2018-02-17T09:42:54.380Z,83.40
2018-02-17T09:45:22.576Z,83.60
2018-02-17T09:47:50.014Z,83.60
2018-02-17T09:50:17.440Z,83.20
2018-02-17T09:52:44.870Z,83.00
2018-02-17T09:55:12.288Z,82.90
2018-02-17T09:57:40.485Z,83.50
2018-02-17T10:00:07.913Z,83.40
2018-02-17T10:02:35.350Z,83.30
2018-02-17T10:05:02.806Z,82.70
2018-02-17T10:07:30.473Z,81.70
2018-02-17T10:09:57.908Z,81.50
2018-02-17T10:12:25.332Z,81.70
2018-02-17T10:14:53.508Z,78.20
2018-02-17T10:17:20.948Z,77.30
2018-02-17T10:19:50.064Z,76.40
2018-02-17T10:22:17.515Z,76.30
2018-02-17T10:24:45.713Z,74.80
2018-02-17T10:27:13.134Z,74.80
2018-02-17T10:29:41.334Z,72.40
2018-02-17T10:32:08.761Z,72.20
2018-02-17T10:34:36.960Z,71.00
2018-02-17T10:37:04.407Z,71.00
2018-02-17T10:39:32.589Z,69.80
2018-02-17T10:42:00.799Z,70.10
2018-02-17T10:44:28.253Z,70.00
2018-02-17T10:46:55.682Z,69.60
2018-02-17T10:49:23.137Z,68.40
2018-02-17T10:51:50.606Z,69.20
2018-02-17T10:54:18.796Z,69.10
2018-02-17T10:56:46.229Z,69.20
2018-02-17T10:59:13.681Z,67.20
2018-02-17T11:01:41.113Z,67.90
2018-02-17T11:04:08.569Z,66.40
2018-02-17T11:06:35.985Z,67.50
2018-02-17T11:09:03.464Z,66.60
2018-02-17T11:11:30.907Z,67.20
2018-02-17T11:13:58.329Z,66.30
2018-02-17T11:16:25.783Z,66.30
2018-02-17T11:18:53.218Z,66.30
2018-02-17T11:21:20.658Z,65.60
2018-02-17T11:23:48.155Z,65.40
2018-02-17T11:26:16.334Z,64.50
2018-02-17T11:28:43.782Z,64.40
2018-02-17T11:31:11.982Z,62.70
2018-02-17T11:33:39.428Z,62.70
2018-02-17T11:36:06.860Z,61.80
2018-02-17T11:38:35.060Z,62.50
2018-02-17T11:41:02.498Z,62.50
2018-02-17T11:43:30.692Z,60.30
2018-02-17T11:45:58.126Z,60.30
2018-02-17T11:48:26.353Z,59.80
2018-02-17T11:50:53.801Z,59.70
2018-02-17T11:53:21.220Z,59.90
2018-02-17T11:55:50.340Z,62.00
2018-02-17T11:58:17.773Z,61.90
2018-02-17T12:00:45.978Z,60.80
2018-02-17T12:03:13.443Z,60.80
2018-02-17T12:05:40.872Z,60.30
2018-02-17T12:08:08.311Z,59.80
2018-02-17T12:10:35.775Z,62.30
2018-02-17T12:13:03.962Z,59.20
2018-02-17T12:15:32.166Z,59.90
2018-02-17T12:17:59.605Z,59.80
2018-02-17T12:20:27.058Z,59.10
2018-02-17T12:22:55.257Z,60.40
2018-02-17T12:25:22.747Z,60.30
2018-02-17T12:27:50.264Z,59.60
2018-02-17T12:30:17.719Z,60.10
2018-02-17T12:32:45.143Z,60.50
2018-02-17T12:35:13.370Z,60.20
2018-02-17T12:37:40.780Z,60.00
2018-02-17T12:40:08.981Z,58.80
2018-02-17T12:42:36.426Z,58.70
2018-02-17T12:45:04.750Z,57.10
2018-02-17T12:47:32.061Z,57.00
2018-02-17T12:49:59.517Z,56.90
2018-02-17T12:52:26.943Z,57.40
2018-02-17T12:54:54.384Z,56.60
2018-02-17T12:57:21.819Z,55.90
2018-02-17T12:59:49.249Z,55.80
2018-02-17T13:02:16.707Z,54.10
2018-02-17T13:04:44.902Z,53.20
2018-02-17T13:07:12.314Z,53.20
2018-02-17T13:09:40.527Z,51.30
2018-02-17T13:12:07.954Z,51.00
2018-02-17T13:14:36.149Z,47.70
2018-02-17T13:17:03.591Z,47.70
2018-02-17T13:19:31.784Z,46.70
2018-02-17T13:21:59.209Z,46.00
2018-02-17T13:24:27.424Z,45.30
2018-02-17T13:26:54.851Z,45.20
2018-02-17T13:29:23.272Z,44.20
2018-02-17T13:31:50.698Z,44.20
2018-02-17T13:34:18.898Z,44.90
2018-02-17T13:36:46.323Z,44.90
2018-02-17T13:39:14.513Z,44.30
2018-02-17T13:41:41.952Z,44.20
2018-02-17T13:44:10.154Z,45.20
2018-02-17T13:46:37.584Z,45.10
2018-02-17T13:49:05.779Z,47.70
2018-02-17T13:51:33.215Z,47.70
2018-02-17T13:54:01.398Z,49.90
2018-02-17T13:56:29.606Z,49.60
2018-02-17T13:58:57.061Z,49.60
2018-02-17T14:01:24.477Z,51.00
2018-02-17T14:03:52.675Z,51.80
2018-02-17T14:06:20.109Z,51.70
2018-02-17T14:08:48.357Z,51.30
2018-02-17T14:11:15.778Z,51.20
2018-02-17T14:13:43.213Z,50.90
2018-02-17T14:16:11.409Z,51.50
2018-02-17T14:18:38.846Z,51.50
2018-02-17T14:21:07.049Z,51.20
2018-02-17T14:23:34.472Z,51.20
2018-02-17T14:26:02.701Z,51.30
2018-02-17T14:28:30.124Z,51.30
2018-02-17T14:30:58.318Z,51.50
2018-02-17T14:33:25.753Z,51.50
2018-02-17T14:35:53.187Z,51.10
2018-02-17T14:38:21.401Z,52.40
2018-02-17T14:40:48.844Z,52.40
2018-02-17T14:43:17.033Z,53.00
2018-02-17T14:45:44.489Z,53.00
2018-02-17T14:48:11.920Z,53.50
2018-02-17T14:50:40.146Z,54.20
2018-02-17T14:53:07.585Z,54.20
2018-02-17T14:55:35.037Z,54.80
2018-02-17T14:58:02.455Z,55.30
2018-02-17T15:00:30.696Z,55.10
2018-02-17T15:02:58.132Z,55.10
2018-02-17T15:05:25.561Z,55.60
2018-02-17T15:07:53.029Z,55.30
2018-02-17T15:10:21.256Z,56.70
2018-02-17T15:12:48.756Z,56.70
2018-02-17T15:15:16.958Z,57.30
2018-02-17T15:17:44.399Z,57.20
2018-02-17T15:20:11.828Z,58.10
2018-02-17T15:22:40.084Z,58.40
2018-02-17T15:25:07.517Z,58.40
2018-02-17T15:27:35.017Z,58.30
2018-02-17T15:30:03.209Z,59.10
2018-02-17T15:32:30.636Z,59.10
2018-02-17T15:34:58.072Z,59.60
2018-02-17T15:37:25.507Z,59.20
2018-02-17T15:39:52.942Z,59.60
2018-02-17T15:42:20.382Z,60.00
2018-02-17T15:44:48.703Z,59.10
2018-02-17T15:47:16.129Z,59.00
2018-02-17T15:49:43.570Z,58.80
2018-02-17T15:52:11.004Z,58.50
2018-02-17T15:54:38.450Z,58.30
2018-02-17T15:57:05.876Z,57.90
2018-02-17T15:59:33.310Z,58.10
2018-02-17T16:02:01.523Z,58.50
2018-02-17T16:04:28.944Z,58.50
2018-02-17T16:06:56.392Z,59.30
2018-02-17T16:09:24.605Z,59.20
2018-02-17T16:11:52.020Z,59.80
2018-02-17T16:14:20.233Z,60.10
2018-02-17T16:16:47.653Z,60.00
2018-02-17T16:19:15.854Z,60.80
2018-02-17T16:21:43.294Z,60.60
2018-02-17T16:24:11.513Z,62.70
2018-02-17T16:26:38.945Z,62.70
2018-02-17T16:29:06.392Z,62.50
2018-02-17T16:31:34.609Z,62.70
2018-02-17T16:34:02.042Z,62.60
2018-02-17T16:36:29.484Z,63.30
2018-02-17T16:38:56.913Z,64.20
2018-02-17T16:41:24.358Z,64.80
2018-02-17T16:43:51.811Z,65.40
2018-02-17T16:46:19.259Z,64.10
2018-02-17T16:48:47.486Z,64.90
2018-02-17T16:51:15.677Z,65.60
2018-02-17T16:53:43.128Z,65.50
2018-02-17T16:56:11.322Z,66.50
2018-02-17T16:58:38.800Z,66.50
2018-02-17T17:01:06.214Z,66.90
2018-02-17T17:03:33.652Z,67.40
2018-02-17T17:06:01.860Z,69.70
2018-02-17T17:08:29.285Z,69.70
2018-02-17T17:10:57.479Z,70.70
2018-02-17T17:13:24.901Z,70.60
2018-02-17T17:15:52.330Z,71.20
2018-02-17T17:18:19.767Z,72.00
2018-02-17T17:20:47.201Z,72.90
2018-02-17T17:23:15.396Z,75.70
2018-02-17T17:25:42.814Z,75.60
2018-02-17T17:28:10.245Z,75.20
2018-02-17T17:30:37.687Z,74.80
2018-02-17T17:33:05.116Z,74.70
2018-02-17T17:35:32.572Z,74.80
2018-02-17T17:37:59.969Z,74.80
2018-02-17T17:40:27.395Z,75.20
2018-02-17T17:42:54.829Z,75.60
2018-02-17T17:45:23.033Z,76.40
2018-02-17T17:47:50.488Z,76.30
2018-02-17T17:50:17.914Z,77.60
2018-02-17T17:52:46.229Z,77.50
2018-02-17T17:55:13.656Z,77.50
2018-02-17T17:57:41.857Z,77.80
2018-02-17T18:00:09.286Z,77.80
2018-02-17T18:02:37.480Z,78.50
2018-02-17T18:05:04.896Z,78.50
2018-02-17T18:07:32.329Z,78.60
2018-02-17T18:09:59.769Z,78.90
2018-02-17T18:12:27.201Z,79.00
2018-02-17T18:14:54.623Z,79.20
2018-02-17T18:17:22.048Z,79.50
2018-02-17T18:19:49.483Z,79.80
2018-02-17T18:22:16.910Z,79.80
2018-02-17T18:24:45.109Z,80.40
2018-02-17T18:27:12.556Z,80.20
2018-02-17T18:29:39.989Z,80.40
2018-02-17T18:32:07.407Z,80.60
2018-02-17T18:34:34.838Z,80.70
2018-02-17T18:37:02.265Z,81.20
2018-02-17T18:39:30.466Z,81.70
2018-02-17T18:41:57.894Z,81.60
2018-02-17T18:44:26.107Z,81.90
2018-02-17T18:46:53.534Z,81.90
2018-02-17T18:49:21.729Z,82.30
2018-02-17T18:51:49.164Z,82.30
2018-02-17T18:54:17.366Z,83.60
2018-02-17T18:56:44.794Z,83.60
2018-02-17T18:59:12.993Z,83.30
2018-02-17T19:01:40.417Z,83.20
2018-02-17T19:04:07.844Z,83.20
2018-02-17T19:06:35.284Z,83.30
2018-02-17T19:09:02.713Z,83.20
2018-02-17T19:11:30.161Z,83.20
2018-02-17T19:13:58.343Z,83.10
2018-02-17T19:16:26.677Z,83.30
2018-02-17T19:18:54.112Z,83.20
2018-02-17T19:21:21.596Z,83.20
2018-02-17T19:23:48.981Z,83.20
2018-02-17T19:26:17.205Z,83.10
2018-02-17T19:28:44.617Z,83.10
2018-02-17T19:31:12.834Z,83.30
2018-02-17T19:33:40.286Z,83.20
2018-02-17T19:36:07.710Z,83.00
2018-02-17T19:38:35.904Z,83.20
2018-02-17T19:41:03.341Z,83.20
2018-02-17T19:43:31.547Z,83.20
2018-02-17T19:45:58.976Z,83.10
2018-02-17T19:48:27.182Z,83.40
2018-02-17T19:50:54.600Z,83.40
2018-02-17T19:53:22.793Z,83.40
2018-02-17T19:55:50.221Z,83.40
2018-02-17T19:58:17.653Z,83.90
2018-02-17T20:00:45.083Z,84.90
2018-02-17T20:03:12.517Z,84.30
2018-02-17T20:05:40.725Z,84.40
2018-02-17T20:08:08.175Z,84.20
2018-02-17T20:10:35.625Z,84.60
2018-02-17T20:13:03.024Z,84.80
2018-02-17T20:15:30.449Z,84.90
2018-02-17T20:17:57.908Z,85.20
2018-02-17T20:20:25.349Z,85.40
2018-02-17T20:22:52.762Z,85.00
2018-02-17T20:25:20.198Z,85.10
2018-02-17T20:27:48.145Z,85.20
2018-02-17T20:30:15.601Z,85.20
2018-02-17T20:32:43.009Z,85.00
2018-02-17T20:35:10.444Z,85.10
2018-02-17T20:37:37.889Z,85.60
2018-02-17T20:40:05.367Z,85.70
2018-02-17T20:42:32.740Z,85.50
2018-02-17T20:45:00.168Z,85.90
2018-02-17T20:47:27.602Z,86.20
2018-02-17T20:49:55.040Z,85.90
2018-02-17T20:52:22.469Z,85.90
2018-02-17T20:54:50.671Z,86.40
2018-02-17T20:57:18.085Z,85.80
2018-02-17T20:59:45.517Z,85.80
2018-02-17T21:02:12.985Z,85.80
2018-02-17T21:04:40.417Z,85.80
2018-02-17T21:07:07.854Z,85.60
2018-02-17T21:09:35.293Z,85.80
2018-02-17T21:12:03.490Z,85.80
2018-02-17T21:14:30.916Z,85.80
2018-02-17T21:16:58.346Z,85.80
2018-02-17T21:19:25.775Z,85.70
2018-02-17T21:21:53.203Z,86.00
2018-02-17T21:24:21.392Z,85.80
2018-02-17T21:26:48.817Z,85.70
2018-02-17T21:29:16.244Z,86.00
2018-02-17T21:31:43.744Z,86.00
2018-02-17T21:34:11.939Z,85.90
2018-02-17T21:36:40.124Z,86.20
2018-02-17T21:39:07.578Z,86.20
2018-02-17T21:41:35.003Z,86.50
2018-02-17T21:44:03.206Z,86.30
2018-02-17T21:46:30.638Z,86.30
2018-02-17T21:48:58.864Z,86.30
2018-02-17T21:51:26.306Z,86.30
2018-02-17T21:53:53.761Z,86.20
2018-02-17T21:56:21.216Z,86.40
2018-02-17T21:58:49.384Z,86.50
2018-02-17T22:01:16.817Z,86.50
2018-02-17T22:03:45.013Z,86.80
2018-02-17T22:06:12.456Z,86.70
2018-02-17T22:08:40.653Z,86.60
2018-02-17T22:11:08.084Z,86.60
2018-02-17T22:13:36.304Z,86.60
2018-02-17T22:16:03.728Z,86.50
2018-02-17T22:18:31.917Z,86.60
2018-02-17T22:20:59.349Z,86.60
2018-02-17T22:23:27.554Z,86.70
2018-02-17T22:25:54.994Z,86.50
2018-02-17T22:28:23.183Z,86.50
2018-02-17T22:30:50.676Z,86.40
2018-02-17T22:33:18.097Z,86.70
2018-02-17T22:35:45.525Z,86.70
2018-02-17T22:38:13.755Z,87.00
2018-02-17T22:40:41.233Z,86.90
2018-02-17T22:43:08.666Z,86.80
2018-02-17T22:45:36.097Z,86.90
2018-02-17T22:48:03.524Z,86.70
2018-02-17T22:50:30.944Z,86.80
2018-02-17T22:52:58.374Z,87.30
2018-02-17T22:55:25.839Z,87.70
2018-02-17T22:57:53.256Z,87.50
2018-02-17T23:00:31.257Z,87.50
2018-02-17T23:02:58.681Z,87.30
2018-02-17T23:05:26.119Z,87.40
2018-02-17T23:07:53.544Z,87.30
2018-02-17T23:10:21.753Z,87.20
2018-02-17T23:12:49.185Z,88.00
2018-02-17T23:15:16.621Z,87.50
2018-02-17T23:17:44.812Z,87.60
2018-02-17T23:20:13.010Z,87.40
2018-02-17T23:22:40.429Z,87.30
2018-02-17T23:25:08.616Z,87.10
2018-02-17T23:27:36.804Z,87.10
2018-02-17T23:30:04.242Z,87.10
2018-02-17T23:32:32.429Z,87.30
2018-02-17T23:35:00.627Z,87.40
2018-02-17T23:37:28.051Z,87.40
2018-02-17T23:39:56.249Z,87.50
2018-02-17T23:42:23.682Z,87.50
2018-02-17T23:44:52.793Z,87.40
2018-02-17T23:47:20.225Z,87.30
2018-02-17T23:49:47.650Z,87.20
2018-02-17T23:52:15.092Z,87.30
2018-02-17T23:54:42.523Z,87.50
2018-02-17T23:57:09.967Z,87.60
2018-02-17T23:59:37.380Z,87.70
